Time;durP1;ratioP1;P1;durP2;ratioP2;P2;SDS_P1;SDS_P2;PMS_P1;PMS_P2;Temp;Humidity;BMP_temperature;BMP_pressure;BME280_temperature;BME280_humidity;BME280_pressure;Samples;Min_cycle;Max_cycle;Signal;HPM_P1;HPM_P2
2021/07/06 00:00:35;0.00;0.00;0.62;0.00;0.00;0.62;3.30;1.90;;;26.90;39.60;;;;;;2277994;61;20359;-65
2021/07/06 00:03:02;0.00;0.00;0.62;0.00;0.00;0.62;3.53;1.73;;;26.90;39.70;;;;;;2276906;60;20788;-63
2021/07/06 00:05:30;0.00;0.00;0.62;0.00;0.00;0.62;4.47;2.13;;;26.90;39.80;;;;;;2277423;60;20376;-69
2021/07/06 00:07:57;0.00;0.00;0.62;0.00;0.00;0.62;1.80;1.70;;;26.90;39.80;;;;;;2276348;60;20423;-65
2021/07/06 00:10:25;0.00;0.00;0.62;0.00;0.00;0.62;3.10;1.87;;;26.90;39.80;;;;;;2277734;60;20695;-69
2021/07/06 00:12:54;0.00;0.00;0.62;0.00;0.00;0.62;2.37;2.00;;;26.90;39.80;;;;;;2278014;60;20375;-69
2021/07/06 00:15:23;0.00;0.00;0.62;0.00;0.00;0.62;2.13;1.87;;;27.00;39.90;;;;;;2277222;60;20624;-63
2021/07/06 00:17:51;0.00;0.00;0.62;0.00;0.00;0.62;2.13;1.93;;;27.00;39.80;;;;;;2278100;60;20383;-64
2021/07/06 00:20:20;0.00;0.00;0.62;0.00;0.00;0.62;3.70;1.90;;;27.00;39.80;;;;;;2278421;60;20351;-64
2021/07/06 00:22:47;0.00;0.00;0.62;0.00;0.00;0.62;4.90;2.37;;;27.00;39.70;;;;;;2278327;60;20841;-62
2021/07/06 00:25:15;0.00;0.00;0.62;0.00;0.00;0.62;2.30;2.10;;;27.00;39.70;;;;;;2278064;60;20355;-64
2021/07/06 00:27:41;0.00;0.00;0.62;0.00;0.00;0.62;2.20;1.90;;;27.00;39.70;;;;;;2278414;61;20347;-62
2021/07/06 00:30:10;0.00;0.00;0.62;0.00;0.00;0.62;2.73;1.90;;;27.00;39.60;;;;;;2278403;61;20472;-63
2021/07/06 00:32:37;0.00;0.00;0.62;0.00;0.00;0.62;2.50;1.67;;;27.00;39.70;;;;;;2277853;60;20421;-64
2021/07/06 00:35:06;0.00;0.00;0.62;0.00;0.00;0.62;1.90;1.70;;;27.00;39.70;;;;;;2277925;60;20347;-64
2021/07/06 00:37:35;0.00;0.00;0.62;0.00;0.00;0.62;2.10;1.90;;;27.00;39.70;;;;;;2278337;60;20379;-63
2021/07/06 00:40:03;0.00;0.00;0.62;0.00;0.00;0.62;2.13;1.70;;;27.00;39.70;;;;;;2277951;60;20395;-63
2021/07/06 00:42:30;0.00;0.00;0.62;0.00;0.00;0.62;1.97;1.67;;;26.90;39.70;;;;;;2278282;61;20397;-67
2021/07/06 00:44:57;0.00;0.00;0.62;0.00;0.00;0.62;6.80;2.00;;;26.90;39.80;;;;;;2278376;61;20356;-66
2021/07/06 00:47:32;0.00;0.00;0.62;0.00;0.00;0.62;4.50;2.50;;;26.80;40.50;;;;;;2277834;60;20351;-68
2021/07/06 00:49:59;0.00;0.00;0.62;0.00;0.00;0.62;2.57;1.60;;;26.80;39.90;;;;;;2278312;60;20351;-67
2021/07/06 00:52:27;0.00;0.00;0.62;0.00;0.00;0.62;2.90;2.10;;;26.70;40.00;;;;;;2278164;61;20599;-66
2021/07/06 00:54:55;0.00;0.00;0.62;0.00;0.00;0.62;2.57;2.03;;;26.70;40.00;;;;;;2277885;60;20351;-68
2021/07/06 00:57:29;0.00;0.00;0.62;0.00;0.00;0.62;2.20;1.83;;;26.70;40.10;;;;;;2278316;61;20589;-68
2021/07/06 00:59:58;0.00;0.00;0.62;0.00;0.00;0.62;1.90;1.70;;;26.70;40.20;;;;;;2278230;60;20355;-67
2021/07/06 01:02:25;0.00;0.00;0.62;0.00;0.00;0.62;2.70;1.77;;;26.60;40.20;;;;;;2277709;60;20454;-68
2021/07/06 01:04:52;0.00;0.00;0.62;0.00;0.00;0.62;2.27;1.90;;;26.60;40.30;;;;;;2278414;60;20351;-67
2021/07/06 01:07:19;0.00;0.00;0.62;0.00;0.00;0.62;2.30;2.10;;;26.60;40.40;;;;;;2278157;60;20390;-66
2021/07/06 01:09:46;0.00;0.00;0.62;0.00;0.00;0.62;3.93;2.07;;;26.50;40.30;;;;;;2277807;60;20574;-66
2021/07/06 01:12:14;0.00;0.00;0.62;0.00;0.00;0.62;3.50;1.97;;;26.50;40.40;;;;;;2277753;61;20611;-68
2021/07/06 01:14:41;0.00;0.00;0.62;0.00;0.00;0.62;2.63;1.87;;;26.50;40.40;;;;;;2278271;61;20741;-67
2021/07/06 01:17:08;0.00;0.00;0.62;0.00;0.00;0.62;2.47;2.00;;;26.50;40.60;;;;;;2277758;60;20359;-66
2021/07/06 01:19:35;0.00;0.00;0.62;0.00;0.00;0.62;2.13;1.93;;;26.50;40.90;;;;;;2278229;61;20688;-65
2021/07/06 01:22:04;0.00;0.00;0.62;0.00;0.00;0.62;2.10;1.90;;;26.40;40.80;;;;;;2278120;60;20477;-67
2021/07/06 01:24:31;0.00;0.00;0.62;0.00;0.00;0.62;3.03;2.50;;;26.40;40.90;;;;;;2277779;60;20382;-67
2021/07/06 01:26:58;0.00;0.00;0.62;0.00;0.00;0.62;2.13;1.80;;;26.40;40.80;;;;;;2278245;60;20362;-66
2021/07/06 01:29:24;0.00;0.00;0.62;0.00;0.00;0.62;2.30;1.80;;;26.40;40.80;;;;;;2278065;61;20360;-68
2021/07/06 01:31:52;0.00;0.00;0.62;0.00;0.00;0.62;3.10;1.87;;;26.40;40.90;;;;;;2277637;61;20347;-67
2021/07/06 01:34:18;0.00;0.00;0.62;0.00;0.00;0.62;1.90;1.70;;;26.40;40.80;;;;;;2278300;61;20351;-66
2021/07/06 01:36:46;0.00;0.00;0.62;0.00;0.00;0.62;1.50;1.40;;;26.30;40.80;;;;;;2278197;61;20660;-66
2021/07/06 01:39:19;0.00;0.00;0.62;0.00;0.00;0.62;3.70;1.83;;;26.30;40.80;;;;;;2277648;61;20386;-66
2021/07/06 01:41:46;0.00;0.00;0.62;0.00;0.00;0.62;2.20;1.67;;;26.30;40.80;;;;;;2278112;61;20377;-68
2021/07/06 01:44:25;0.00;0.00;0.62;0.00;0.00;0.62;2.20;1.80;;;26.30;40.90;;;;;;2278096;60;20379;-65
2021/07/06 01:46:53;0.00;0.00;0.62;0.00;0.00;0.62;1.93;1.73;;;26.30;41.00;;;;;;2277847;61;20700;-67
2021/07/06 01:49:20;0.00;0.00;0.62;0.00;0.00;0.62;3.30;1.60;;;26.30;40.90;;;;;;2278069;61;20358;-66
2021/07/06 01:51:48;0.00;0.00;0.62;0.00;0.00;0.62;2.87;2.00;;;26.30;41.00;;;;;;2278065;61;20574;-66
2021/07/06 01:54:17;0.00;0.00;0.62;0.00;0.00;0.62;2.17;1.53;;;26.30;41.10;;;;;;2277787;60;20375;-67
2021/07/06 01:56:46;0.00;0.00;0.62;0.00;0.00;0.62;2.70;1.63;;;26.30;41.20;;;;;;2277556;61;20356;-69
2021/07/06 01:59:14;0.00;0.00;0.62;0.00;0.00;0.62;3.10;1.60;;;26.20;41.20;;;;;;2278145;61;20387;-68
2021/07/06 02:01:44;0.00;0.00;0.62;0.00;0.00;0.62;2.80;1.40;;;26.20;41.40;;;;;;2277586;61;20358;-65
2021/07/06 02:04:13;0.00;0.00;0.62;0.00;0.00;0.62;1.97;1.37;;;26.20;41.50;;;;;;2277591;60;20445;-65
2021/07/06 02:06:40;0.00;0.00;0.62;0.00;0.00;0.62;1.77;1.53;;;26.20;41.50;;;;;;2277879;60;20356;-68
2021/07/06 02:09:07;0.00;0.00;0.62;0.00;0.00;0.62;6.50;1.63;;;26.20;41.60;;;;;;2277627;61;20383;-68
2021/07/06 02:11:35;0.00;0.00;0.62;0.00;0.00;0.62;3.30;1.83;;;26.20;41.70;;;;;;2277852;61;20691;-66
2021/07/06 02:14:03;0.00;0.00;0.62;0.00;0.00;0.62;3.37;1.90;;;26.20;41.70;;;;;;2278201;61;20367;-68
2021/07/06 02:16:30;0.00;0.00;0.62;0.00;0.00;0.62;3.20;1.97;;;26.20;41.80;;;;;;2277796;61;20701;-66
2021/07/06 02:18:56;0.00;0.00;0.62;0.00;0.00;0.62;1.70;1.40;;;26.10;41.90;;;;;;2278083;61;20390;-65
2021/07/06 02:21:23;0.00;0.00;0.62;0.00;0.00;0.62;2.40;1.90;;;26.10;41.90;;;;;;2278159;61;20359;-66
2021/07/06 02:23:49;0.00;0.00;0.62;0.00;0.00;0.62;1.90;1.50;;;26.10;42.00;;;;;;2277611;61;20398;-68
2021/07/06 02:26:16;0.00;0.00;0.62;0.00;0.00;0.62;2.83;1.80;;;26.10;41.90;;;;;;2278040;61;20743;-66
2021/07/06 02:28:44;0.00;0.00;0.62;0.00;0.00;0.62;2.63;1.57;;;26.10;42.10;;;;;;2277938;60;20387;-66
2021/07/06 02:31:11;0.00;0.00;0.62;0.00;0.00;0.62;2.60;1.57;;;26.00;42.00;;;;;;2277549;61;20352;-66
2021/07/06 02:33:37;0.00;0.00;0.62;0.00;0.00;0.62;3.37;1.97;;;26.00;41.90;;;;;;2278001;61;20378;-67
2021/07/06 02:36:06;0.00;0.00;0.62;0.00;0.00;0.62;2.57;1.40;;;26.00;41.90;;;;;;2278015;61;20351;-68
2021/07/06 02:38:34;0.00;0.00;0.62;0.00;0.00;0.62;1.50;1.30;;;26.00;42.00;;;;;;2277514;61;20387;-67
2021/07/06 02:41:01;0.00;0.00;0.62;0.00;0.00;0.62;5.30;1.60;;;26.00;42.00;;;;;;2277902;61;20362;-67
2021/07/06 02:43:27;0.00;0.00;0.62;0.00;0.00;0.62;2.50;1.57;;;26.00;42.00;;;;;;2277998;61;20372;-68
2021/07/06 02:45:55;0.00;0.00;0.62;0.00;0.00;0.62;2.17;1.97;;;26.00;42.10;;;;;;2277555;61;20493;-67
2021/07/06 02:48:22;0.00;0.00;0.62;0.00;0.00;0.62;3.53;1.40;;;26.00;42.20;;;;;;2278083;61;20352;-68
2021/07/06 02:50:49;0.00;0.00;0.62;0.00;0.00;0.62;2.00;1.70;;;25.90;42.10;;;;;;2278010;61;20386;-67
2021/07/06 02:53:15;0.00;0.00;0.62;0.00;0.00;0.62;1.80;1.37;;;25.90;42.10;;;;;;2277449;61;20378;-68
2021/07/06 02:55:42;0.00;0.00;0.62;0.00;0.00;0.62;3.13;1.33;;;25.90;42.20;;;;;;2277990;61;20400;-66
2021/07/06 02:58:09;0.00;0.00;0.62;0.00;0.00;0.62;2.10;1.70;;;25.90;42.20;;;;;;2278002;61;20382;-68
2021/07/06 03:00:36;0.00;0.00;0.62;0.00;0.00;0.62;2.20;1.60;;;25.90;42.20;;;;;;2277625;61;20362;-66
2021/07/06 03:03:08;0.00;0.00;0.62;0.00;0.00;0.62;1.63;1.53;;;25.90;42.30;;;;;;2277906;61;20442;-66
2021/07/06 03:05:36;0.00;0.00;0.62;0.00;0.00;0.62;2.57;1.57;;;25.80;42.30;;;;;;2277938;61;20359;-66
2021/07/06 03:08:04;0.00;0.00;0.62;0.00;0.00;0.62;2.87;1.77;;;25.80;42.40;;;;;;2277466;60;20419;-66
2021/07/06 03:10:34;0.00;0.00;0.62;0.00;0.00;0.62;1.97;1.33;;;25.80;42.40;;;;;;2277876;60;20390;-68
2021/07/06 03:13:02;0.00;0.00;0.62;0.00;0.00;0.62;4.00;1.27;;;25.80;42.50;;;;;;2277830;60;20371;-67
2021/07/06 03:15:31;0.00;0.00;0.62;0.00;0.00;0.62;4.50;1.53;;;25.80;42.50;;;;;;2277550;61;20680;-66
2021/07/06 03:17:59;0.00;0.00;0.62;0.00;0.00;0.62;3.33;1.50;;;25.80;42.50;;;;;;2278012;60;20379;-67
2021/07/06 03:20:28;0.00;0.00;0.62;0.00;0.00;0.62;1.87;1.53;;;25.80;42.50;;;;;;2278560;61;20355;-67
2021/07/06 03:22:55;0.00;0.00;0.62;0.00;0.00;0.62;1.60;1.20;;;25.70;42.50;;;;;;2278175;61;20378;-67
2021/07/06 03:25:25;0.00;0.00;0.62;0.00;0.00;0.62;3.90;1.50;;;25.70;42.50;;;;;;2278610;60;20355;-67
2021/07/06 03:27:52;0.00;0.00;0.62;0.00;0.00;0.62;2.50;1.20;;;25.70;42.50;;;;;;2278052;60;20347;-67
2021/07/06 03:30:21;0.00;0.00;0.62;0.00;0.00;0.62;3.40;1.43;;;25.70;42.50;;;;;;2278110;61;20351;-65
2021/07/06 03:32:51;0.00;0.00;0.62;0.00;0.00;0.62;2.20;1.43;;;25.70;42.60;;;;;;2278479;61;20366;-65
2021/07/06 03:35:17;0.00;0.00;0.62;0.00;0.00;0.62;2.10;1.30;;;25.70;42.60;;;;;;2278568;60;20374;-67
2021/07/06 03:37:46;0.00;0.00;0.62;0.00;0.00;0.62;2.83;1.40;;;25.70;42.60;;;;;;2278167;61;20379;-66
2021/07/06 03:40:14;0.00;0.00;0.62;0.00;0.00;0.62;1.87;1.10;;;25.70;42.70;;;;;;2278039;60;20366;-66
2021/07/06 03:42:41;0.00;0.00;0.62;0.00;0.00;0.62;5.13;1.60;;;25.70;43.40;;;;;;2278377;61;20607;-67
2021/07/06 03:45:10;0.00;0.00;0.62;0.00;0.00;0.62;2.30;1.93;;;25.70;42.80;;;;;;2278202;61;20575;-66
2021/07/06 03:47:37;0.00;0.00;0.62;0.00;0.00;0.62;2.00;1.30;;;25.70;42.80;;;;;;2278526;61;20347;-68
2021/07/06 03:50:07;0.00;0.00;0.62;0.00;0.00;0.62;2.13;1.47;;;25.60;42.70;;;;;;2278463;60;20347;-66
2021/07/06 03:52:34;0.00;0.00;0.62;0.00;0.00;0.62;2.33;1.40;;;25.60;42.70;;;;;;2278022;61;20359;-67
2021/07/06 03:55:03;0.00;0.00;0.62;0.00;0.00;0.62;1.60;1.43;;;25.60;42.70;;;;;;2278724;60;20351;-66
2021/07/06 03:57:30;0.00;0.00;0.62;0.00;0.00;0.62;1.87;1.67;;;25.60;42.70;;;;;;2278467;61;20429;-66
2021/07/06 03:59:58;0.00;0.00;0.62;0.00;0.00;0.62;1.70;1.33;;;25.60;42.70;;;;;;2278023;60;20442;-66
2021/07/06 04:02:24;0.00;0.00;0.62;0.00;0.00;0.62;1.90;1.30;;;25.60;42.70;;;;;;2278327;61;20371;-68
2021/07/06 04:04:51;0.00;0.00;0.62;0.00;0.00;0.62;2.30;1.30;;;25.60;42.70;;;;;;2278556;61;20363;-66
2021/07/06 04:07:18;0.00;0.00;0.62;0.00;0.00;0.62;5.07;1.13;;;25.60;42.70;;;;;;2278108;60;20359;-66
2021/07/06 04:09:45;0.00;0.00;0.62;0.00;0.00;0.62;1.70;1.40;;;25.60;42.80;;;;;;2278571;61;20352;-69
2021/07/06 04:12:13;0.00;0.00;0.62;0.00;0.00;0.62;1.70;1.23;;;25.60;42.70;;;;;;2278355;60;20594;-67
2021/07/06 04:14:39;0.00;0.00;0.62;0.00;0.00;0.62;2.50;1.70;;;25.60;42.80;;;;;;2278056;60;20363;-66
2021/07/06 04:17:06;0.00;0.00;0.62;0.00;0.00;0.62;2.63;1.60;;;25.60;42.80;;;;;;2278425;61;20427;-67
2021/07/06 04:19:32;0.00;0.00;0.62;0.00;0.00;0.62;4.30;1.50;;;25.60;42.90;;;;;;2278471;61;20434;-67
2021/07/06 04:21:59;0.00;0.00;0.62;0.00;0.00;0.62;2.53;1.67;;;25.50;42.80;;;;;;2277313;60;20352;-68
2021/07/06 04:24:27;0.00;0.00;0.62;0.00;0.00;0.62;2.00;1.40;;;25.60;42.90;;;;;;2278346;60;20355;-66
2021/07/06 04:26:54;0.00;0.00;0.62;0.00;0.00;0.62;2.73;1.20;;;25.50;42.80;;;;;;2278468;61;20351;-67
2021/07/06 04:29:21;0.00;0.00;0.62;0.00;0.00;0.62;2.50;1.73;;;25.50;42.80;;;;;;2277616;60;20436;-67
2021/07/06 04:31:48;0.00;0.00;0.62;0.00;0.00;0.62;2.20;1.30;;;25.50;42.90;;;;;;2278440;61;20352;-66
2021/07/06 04:34:15;0.00;0.00;0.62;0.00;0.00;0.62;5.43;1.70;;;25.50;42.90;;;;;;2278395;61;20398;-65
2021/07/06 04:36:41;0.00;0.00;0.62;0.00;0.00;0.62;2.13;1.20;;;25.50;42.90;;;;;;2277831;61;20416;-69
2021/07/06 04:39:08;0.00;0.00;0.62;0.00;0.00;0.62;2.43;1.50;;;25.50;43.10;;;;;;2278356;61;20372;-66
2021/07/06 04:41:35;0.00;0.00;0.62;0.00;0.00;0.62;1.50;1.40;;;25.50;43.00;;;;;;2278267;61;20348;-66
2021/07/06 04:44:01;0.00;0.00;0.62;0.00;0.00;0.62;1.43;1.20;;;25.50;43.10;;;;;;2277778;61;20371;-68
2021/07/06 04:46:29;0.00;0.00;0.62;0.00;0.00;0.62;1.60;1.50;;;25.50;43.10;;;;;;2278419;61;20348;-68
2021/07/06 04:48:56;0.00;0.00;0.62;0.00;0.00;0.62;1.90;1.47;;;25.50;43.20;;;;;;2278346;61;20363;-66
2021/07/06 04:51:23;0.00;0.00;0.62;0.00;0.00;0.62;2.33;1.20;;;25.50;43.20;;;;;;2277683;61;20356;-66
2021/07/06 04:53:49;0.00;0.00;0.62;0.00;0.00;0.62;1.70;1.37;;;25.50;43.30;;;;;;2277838;60;20458;-69
2021/07/06 04:56:16;0.00;0.00;0.62;0.00;0.00;0.62;1.90;1.27;;;25.50;43.30;;;;;;2278332;61;20362;-66
2021/07/06 04:58:42;0.00;0.00;0.62;0.00;0.00;0.62;1.70;1.40;;;25.50;43.30;;;;;;2277770;60;20484;-67
2021/07/06 05:01:09;0.00;0.00;0.62;0.00;0.00;0.62;2.80;1.50;;;25.50;43.30;;;;;;2277703;61;20400;-64
2021/07/06 05:03:38;0.00;0.00;0.62;0.00;0.00;0.62;2.23;1.30;;;25.50;43.40;;;;;;2278293;61;20375;-68
2021/07/06 05:06:04;0.00;0.00;0.62;0.00;0.00;0.62;2.07;1.33;;;25.50;43.40;;;;;;2277716;61;20691;-68
2021/07/06 05:08:31;0.00;0.00;0.62;0.00;0.00;0.62;1.93;1.63;;;25.50;43.40;;;;;;2278225;61;20348;-68
2021/07/06 05:10:57;0.00;0.00;0.62;0.00;0.00;0.62;1.93;1.30;;;25.50;43.50;;;;;;2278294;60;20366;-68
2021/07/06 05:13:24;0.00;0.00;0.62;0.00;0.00;0.62;3.87;1.13;;;25.50;43.40;;;;;;2277706;61;20446;-65
2021/07/06 05:15:51;0.00;0.00;0.62;0.00;0.00;0.62;1.77;1.47;;;25.50;43.40;;;;;;2278513;60;20352;-65
2021/07/06 05:18:18;0.00;0.00;0.62;0.00;0.00;0.62;2.37;1.47;;;25.50;43.50;;;;;;2278183;61;20376;-65
2021/07/06 05:20:46;0.00;0.00;0.62;0.00;0.00;0.62;1.70;1.13;;;25.50;43.50;;;;;;2277627;60;20392;-65
2021/07/06 05:23:12;0.00;0.00;0.62;0.00;0.00;0.62;1.73;1.33;;;25.50;43.60;;;;;;2278189;60;20409;-66
2021/07/06 05:25:39;0.00;0.00;0.62;0.00;0.00;0.62;2.20;1.70;;;25.50;43.60;;;;;;2277748;61;20355;-67
2021/07/06 05:28:06;0.00;0.00;0.62;0.00;0.00;0.62;2.53;1.73;;;25.50;43.60;;;;;;2277708;61;20351;-65
2021/07/06 05:30:32;0.00;0.00;0.62;0.00;0.00;0.62;2.37;1.67;;;25.50;43.70;;;;;;2278167;61;20357;-66
2021/07/06 05:32:59;0.00;0.00;0.62;0.00;0.00;0.62;2.90;1.87;;;25.50;43.60;;;;;;2278120;61;20364;-65
2021/07/06 05:35:25;0.00;0.00;0.62;0.00;0.00;0.62;2.57;1.93;;;25.50;43.70;;;;;;2277724;60;20378;-65
2021/07/06 05:37:53;0.00;0.00;0.62;0.00;0.00;0.62;3.07;1.70;;;25.50;43.70;;;;;;2278305;61;20610;-66
2021/07/06 05:40:20;0.00;0.00;0.62;0.00;0.00;0.62;2.73;1.70;;;25.50;43.70;;;;;;2278037;60;20356;-68
2021/07/06 05:42:47;0.00;0.00;0.62;0.00;0.00;0.62;2.13;1.60;;;25.50;43.80;;;;;;2277493;60;20587;-66
2021/07/06 05:45:14;0.00;0.00;0.62;0.00;0.00;0.62;2.47;1.60;;;25.50;44.50;;;;;;2278264;61;20362;-66
2021/07/06 05:47:41;0.00;0.00;0.62;0.00;0.00;0.62;2.30;1.80;;;25.50;43.70;;;;;;2278057;61;20391;-68
2021/07/06 05:50:13;0.00;0.00;0.62;0.00;0.00;0.62;2.13;1.67;;;25.60;43.90;;;;;;2277220;60;20347;-67
2021/07/06 05:52:40;0.00;0.00;0.62;0.00;0.00;0.62;1.73;1.50;;;25.60;43.90;;;;;;2278041;60;20633;-66
2021/07/06 05:55:10;0.00;0.00;0.62;0.00;0.00;0.62;2.63;1.87;;;25.60;44.00;;;;;;2278023;61;20591;-65
2021/07/06 05:57:40;0.00;0.00;0.62;0.00;0.00;0.62;1.87;1.30;;;25.60;44.00;;;;;;2277714;61;20398;-66
2021/07/06 06:00:09;0.00;0.00;0.62;0.00;0.00;0.62;2.03;1.70;;;25.60;44.00;;;;;;2278139;61;20351;-65
2021/07/06 06:02:37;0.00;0.00;0.62;0.00;0.00;0.62;1.80;1.30;;;25.60;44.00;;;;;;2277786;60;20378;-66
2021/07/06 06:05:06;0.00;0.00;0.62;0.00;0.00;0.62;2.27;1.77;;;25.60;43.90;;;;;;2277767;61;20442;-68
2021/07/06 06:07:37;0.00;0.00;0.62;0.00;0.00;0.62;3.93;1.40;;;25.70;44.10;;;;;;2278091;60;20355;-65
2021/07/06 06:10:06;0.00;0.00;0.62;0.00;0.00;0.62;2.07;1.67;;;25.60;44.00;;;;;;2277950;60;20367;-64
2021/07/06 06:12:34;0.00;0.00;0.62;0.00;0.00;0.62;1.90;1.70;;;25.70;43.90;;;;;;2277530;61;20719;-66
2021/07/06 06:15:01;0.00;0.00;0.62;0.00;0.00;0.62;2.83;1.80;;;25.70;43.90;;;;;;2278080;61;20352;-65
2021/07/06 06:17:27;0.00;0.00;0.62;0.00;0.00;0.62;2.47;1.87;;;25.70;43.80;;;;;;2278028;61;20355;-61
2021/07/06 06:19:54;0.00;0.00;0.62;0.00;0.00;0.62;3.30;1.63;;;25.70;43.70;;;;;;2277386;61;20424;-65
2021/07/06 06:22:21;0.00;0.00;0.62;0.00;0.00;0.62;2.00;1.53;;;25.80;43.90;;;;;;2277926;61;20378;-64
2021/07/06 06:24:47;0.00;0.00;0.62;0.00;0.00;0.62;2.10;1.70;;;25.80;43.80;;;;;;2278006;61;20687;-67
2021/07/06 06:27:15;0.00;0.00;0.62;0.00;0.00;0.62;2.53;1.80;;;25.80;43.80;;;;;;2277567;61;20618;-68
2021/07/06 06:29:43;0.00;0.00;0.62;0.00;0.00;0.62;1.90;1.50;;;25.80;43.70;;;;;;2278159;61;20405;-66
2021/07/06 06:32:10;0.00;0.00;0.62;0.00;0.00;0.62;3.53;1.73;;;25.80;43.70;;;;;;2277916;60;20367;-68
2021/07/06 06:34:36;0.00;0.00;0.62;0.00;0.00;0.62;2.03;1.57;;;25.80;43.70;;;;;;2277587;61;20473;-70
2021/07/06 06:37:04;0.00;0.00;0.62;0.00;0.00;0.62;1.60;1.50;;;25.90;43.80;;;;;;2277979;61;20359;-66
2021/07/06 06:39:30;0.00;0.00;0.62;0.00;0.00;0.62;2.37;1.47;;;25.90;43.80;;;;;;2278019;61;20420;-65
2021/07/06 06:41:57;0.00;0.00;0.62;0.00;0.00;0.62;2.07;1.70;;;25.90;43.70;;;;;;2277377;61;20355;-66
2021/07/06 06:44:23;0.00;0.00;0.62;0.00;0.00;0.62;2.40;1.73;;;26.00;43.70;;;;;;2277890;61;20582;-65
2021/07/06 06:46:51;0.00;0.00;0.62;0.00;0.00;0.62;2.20;1.50;;;26.00;43.60;;;;;;2278029;61;20359;-65
2021/07/06 06:49:17;0.00;0.00;0.62;0.00;0.00;0.62;2.90;1.73;;;26.00;43.60;;;;;;2277527;60;20577;-67
2021/07/06 06:51:44;0.00;0.00;0.62;0.00;0.00;0.62;1.90;1.33;;;26.00;43.50;;;;;;2277760;61;20363;-62
2021/07/06 06:54:10;0.00;0.00;0.62;0.00;0.00;0.62;3.57;2.00;;;26.00;43.40;;;;;;2278614;61;20451;-65
2021/07/06 06:56:40;0.00;0.00;0.62;0.00;0.00;0.62;2.80;1.90;;;26.10;43.60;;;;;;2278167;61;20354;-66
2021/07/06 06:59:08;0.00;0.00;0.62;0.00;0.00;0.62;3.57;1.70;;;26.10;43.50;;;;;;2278655;61;20479;-66
2021/07/06 07:01:35;0.00;0.00;0.62;0.00;0.00;0.62;2.23;1.73;;;26.20;43.60;;;;;;2278603;60;20355;-65
2021/07/06 07:04:05;0.00;0.00;0.62;0.00;0.00;0.62;2.00;1.80;;;26.10;43.40;;;;;;2278291;61;20375;-66
2021/07/06 07:06:32;0.00;0.00;0.62;0.00;0.00;0.62;2.30;1.80;;;26.20;43.40;;;;;;2278777;60;20362;-65
2021/07/06 07:08:59;0.00;0.00;0.62;0.00;0.00;0.62;3.37;2.30;;;26.20;44.10;;;;;;2278108;61;20679;-65
2021/07/06 07:11:25;0.00;0.00;0.62;0.00;0.00;0.62;2.77;1.50;;;26.20;43.30;;;;;;2278114;61;20363;-65
2021/07/06 07:13:52;0.00;0.00;0.62;0.00;0.00;0.62;3.77;1.70;;;26.20;43.30;;;;;;2278626;61;20455;-65
2021/07/06 07:16:18;0.00;0.00;0.62;0.00;0.00;0.62;3.10;1.87;;;26.30;43.30;;;;;;2278715;60;20351;-65
2021/07/06 07:18:48;0.00;0.00;0.62;0.00;0.00;0.62;2.20;2.00;;;26.30;43.30;;;;;;2278117;61;20390;-65
2021/07/06 07:21:16;0.00;0.00;0.62;0.00;0.00;0.62;2.73;1.60;;;26.30;43.20;;;;;;2278392;61;20388;-65
2021/07/06 07:23:42;0.00;0.00;0.62;0.00;0.00;0.62;1.97;1.60;;;26.30;43.20;;;;;;2278641;61;20378;-65
2021/07/06 07:26:09;0.00;0.00;0.62;0.00;0.00;0.62;3.50;1.70;;;26.40;43.20;;;;;;2277739;61;20447;-66
2021/07/06 07:28:35;0.00;0.00;0.62;0.00;0.00;0.62;1.90;1.50;;;26.40;43.20;;;;;;2278526;61;20351;-66
2021/07/06 07:31:02;0.00;0.00;0.62;0.00;0.00;0.62;2.17;1.77;;;26.40;43.20;;;;;;2278536;61;20358;-66
2021/07/06 07:33:29;0.00;0.00;0.62;0.00;0.00;0.62;4.70;2.20;;;26.40;43.20;;;;;;2278125;61;20415;-66
2021/07/06 07:35:55;0.00;0.00;0.62;0.00;0.00;0.62;2.37;1.83;;;26.50;43.30;;;;;;2278651;61;20347;-65
2021/07/06 07:38:24;0.00;0.00;0.62;0.00;0.00;0.62;1.70;1.40;;;26.50;43.20;;;;;;2278600;61;20371;-65
2021/07/06 07:40:51;0.00;0.00;0.62;0.00;0.00;0.62;3.47;1.53;;;26.50;43.20;;;;;;2278199;61;20347;-66
2021/07/06 07:43:18;0.00;0.00;0.62;0.00;0.00;0.62;3.70;1.50;;;26.50;43.30;;;;;;2278474;60;20452;-66
2021/07/06 07:45:44;0.00;0.00;0.62;0.00;0.00;0.62;2.30;1.80;;;26.50;43.20;;;;;;2278157;61;20362;-66
2021/07/06 07:48:11;0.00;0.00;0.62;0.00;0.00;0.62;3.47;1.57;;;26.60;43.20;;;;;;2278087;61;20347;-65
2021/07/06 07:50:37;0.00;0.00;0.62;0.00;0.00;0.62;2.07;1.50;;;26.60;43.20;;;;;;2278468;61;20359;-65
2021/07/06 07:53:04;0.00;0.00;0.62;0.00;0.00;0.62;1.50;1.30;;;26.60;43.10;;;;;;2278452;60;20375;-66
2021/07/06 07:55:32;0.00;0.00;0.62;0.00;0.00;0.62;2.53;1.60;;;26.70;43.10;;;;;;2278113;60;20706;-65
2021/07/06 07:57:59;0.00;0.00;0.62;0.00;0.00;0.62;3.07;1.40;;;26.70;43.10;;;;;;2278558;61;20386;-65
2021/07/06 08:00:25;0.00;0.00;0.62;0.00;0.00;0.62;2.37;1.40;;;26.70;43.00;;;;;;2278562;60;20363;-66
2021/07/06 08:02:52;0.00;0.00;0.62;0.00;0.00;0.62;5.50;1.63;;;26.70;43.00;;;;;;2277685;61;20476;-66
2021/07/06 08:05:19;0.00;0.00;0.62;0.00;0.00;0.62;3.10;1.87;;;26.80;43.00;;;;;;2278221;61;20399;-64
2021/07/06 08:07:45;0.00;0.00;0.62;0.00;0.00;0.62;2.67;1.50;;;26.80;42.90;;;;;;2278614;61;20399;-65
2021/07/06 08:10:12;0.00;0.00;0.62;0.00;0.00;0.62;4.17;2.07;;;26.80;42.90;;;;;;2278033;61;20366;-65
2021/07/06 08:12:40;0.00;0.00;0.62;0.00;0.00;0.62;1.80;1.60;;;26.80;42.90;;;;;;2278172;60;20466;-65
2021/07/06 08:15:07;0.00;0.00;0.62;0.00;0.00;0.62;1.97;1.73;;;26.90;42.90;;;;;;2278537;61;20360;-65
2021/07/06 08:17:35;0.00;0.00;0.62;0.00;0.00;0.62;5.50;1.80;;;26.90;42.90;;;;;;2278076;61;20554;-66
2021/07/06 08:20:03;0.00;0.00;0.62;0.00;0.00;0.62;2.37;1.70;;;26.90;42.80;;;;;;2278206;60;20355;-65
2021/07/06 08:22:30;0.00;0.00;0.62;0.00;0.00;0.62;1.93;1.73;;;26.90;42.80;;;;;;2277907;61;20708;-66
2021/07/06 08:24:57;0.00;0.00;0.62;0.00;0.00;0.62;3.03;1.60;;;27.00;42.80;;;;;;2278118;61;20352;-65
2021/07/06 08:27:23;0.00;0.00;0.62;0.00;0.00;0.62;2.40;1.30;;;27.00;42.80;;;;;;2278181;60;20390;-65
2021/07/06 08:29:51;0.00;0.00;0.62;0.00;0.00;0.62;1.80;1.40;;;27.00;42.80;;;;;;2278423;60;20685;-66
2021/07/06 08:32:18;0.00;0.00;0.62;0.00;0.00;0.62;3.13;1.60;;;27.00;42.80;;;;;;2277988;61;20383;-65
2021/07/06 08:34:44;0.00;0.00;0.62;0.00;0.00;0.62;1.60;1.40;;;27.00;42.80;;;;;;2278239;61;20351;-65
2021/07/06 08:37:11;0.00;0.00;0.62;0.00;0.00;0.62;1.73;1.43;;;27.00;42.70;;;;;;2278369;61;20673;-65
2021/07/06 08:39:37;0.00;0.00;0.62;0.00;0.00;0.62;2.10;1.60;;;27.10;42.70;;;;;;2278001;60;20389;-65
2021/07/06 08:42:06;0.00;0.00;0.62;0.00;0.00;0.62;2.27;1.63;;;27.10;42.60;;;;;;2278125;60;20580;-64
2021/07/06 08:44:38;0.00;0.00;0.62;0.00;0.00;0.62;4.40;1.53;;;27.10;42.60;;;;;;2278330;61;20348;-65
2021/07/06 08:47:08;0.00;0.00;0.62;0.00;0.00;0.62;2.93;1.60;;;27.10;42.60;;;;;;2277542;61;20588;-63
2021/07/06 08:49:35;0.00;0.00;0.62;0.00;0.00;0.62;2.53;1.70;;;27.20;42.70;;;;;;2277828;61;20355;-64
2021/07/06 08:52:04;0.00;0.00;0.62;0.00;0.00;0.62;2.57;1.63;;;27.20;42.60;;;;;;2277653;61;20353;-64
2021/07/06 08:54:31;0.00;0.00;0.62;0.00;0.00;0.62;2.20;1.70;;;27.20;42.60;;;;;;2277683;61;20703;-64
2021/07/06 08:56:57;0.00;0.00;0.62;0.00;0.00;0.62;2.30;1.57;;;27.20;42.60;;;;;;2277769;61;20355;-65
2021/07/06 08:59:24;0.00;0.00;0.62;0.00;0.00;0.62;4.20;1.63;;;27.20;42.60;;;;;;2278201;60;20768;-63
2021/07/06 09:01:51;0.00;0.00;0.62;0.00;0.00;0.62;2.93;1.80;;;27.20;42.40;;;;;;2277915;61;20688;-66
2021/07/06 09:04:19;0.00;0.00;0.62;0.00;0.00;0.62;2.47;1.77;;;27.30;42.50;;;;;;2278140;60;20351;-65
2021/07/06 09:06:57;0.00;0.00;0.62;0.00;0.00;0.62;2.70;1.80;;;27.30;42.40;;;;;;2278350;61;20564;-66
2021/07/06 09:09:28;0.00;0.00;0.62;0.00;0.00;0.62;3.70;1.50;;;27.30;42.30;;;;;;2278027;61;20358;-66
2021/07/06 09:11:56;0.00;0.00;0.62;0.00;0.00;0.62;2.50;1.53;;;27.30;42.30;;;;;;2277990;61;20363;-65
2021/07/06 09:14:27;0.00;0.00;0.62;0.00;0.00;0.62;3.70;2.03;;;27.40;42.20;;;;;;2278234;61;20351;-65
2021/07/06 09:17:12;0.00;0.00;0.62;0.00;0.00;0.62;1.80;1.53;;;27.40;42.10;;;;;;2277914;60;20438;-66
2021/07/06 09:19:43;0.00;0.00;0.62;0.00;0.00;0.62;2.87;1.90;;;27.40;42.10;;;;;;2278167;61;20379;-65
2021/07/06 09:22:14;0.00;0.00;0.62;0.00;0.00;0.62;1.80;1.63;;;27.40;42.00;;;;;;2274374;61;20355;-66
2021/07/06 09:24:42;0.00;0.00;0.62;0.00;0.00;0.62;1.73;1.23;;;27.40;42.00;;;;;;2277822;61;20351;-65
2021/07/06 09:27:24;0.00;0.00;0.62;0.00;0.00;0.62;3.03;1.60;;;27.50;41.80;;;;;;2278295;61;20605;-66
2021/07/06 09:30:13;0.00;0.00;0.62;0.00;0.00;0.62;3.07;2.47;;;27.50;41.80;;;;;;2278223;61;20550;-65
2021/07/06 09:32:42;0.00;0.00;0.62;0.00;0.00;0.62;4.80;1.80;;;27.50;41.70;;;;;;2277674;61;20460;-65
2021/07/06 09:35:15;0.00;0.00;0.62;0.00;0.00;0.62;2.27;1.63;;;27.50;41.60;;;;;;2278061;61;20488;-65
2021/07/06 09:37:44;0.00;0.00;0.62;0.00;0.00;0.62;2.17;1.97;;;27.50;41.60;;;;;;2277746;61;20366;-65
2021/07/06 09:40:29;0.00;0.00;0.62;0.00;0.00;0.62;2.70;1.53;;;27.50;41.60;;;;;;2277671;60;20582;-65
2021/07/06 09:43:24;0.00;0.00;0.62;0.00;0.00;0.62;4.83;1.90;;;27.50;41.60;;;;;;2278107;61;20374;-65